Time;durP1;ratioP1;P1;durP2;ratioP2;P2;SDS_P1;SDS_P2;PMS_P1;PMS_P2;Temp;Humidity;BMP_temperature;BMP_pressure;BME280_temperature;BME280_humidity;BME280_pressure;Samples;Min_cycle;Max_cycle;Signal;HPM_P1;HPM_P2
2022/06/04 00:00:18;;;;;;;5.70;2.05;;;;;;;16.32;52.55;101731.16;5006687;28;20062;-81
2022/06/04 00:02:45;;;;;;;4.38;2.30;;;;;;;16.32;53.33;101728.47;5021721;28;20059;-80
2022/06/04 00:05:13;;;;;;;7.93;3.00;;;;;;;16.27;52.87;101729.72;5025097;28;20029;-81
2022/06/04 00:07:38;;;;;;;3.22;2.22;;;;;;;16.25;52.66;101728.16;5026846;28;20050;-80
2022/06/04 00:15:44;;;;;;;3.58;2.25;;;;;;;16.12;53.08;101712.31;5024679;28;20090;-80
2022/06/04 00:18:09;;;;;;;2.22;2.03;;;;;;;16.12;52.95;101724.84;5031864;28;20120;-81
2022/06/04 00:20:35;;;;;;;2.70;2.05;;;;;;;16.07;53.24;101720.72;5024088;28;20091;-80
2022/06/04 00:23:04;;;;;;;2.50;2.30;;;;;;;16.02;53.18;101717.59;5021049;28;20434;-81
2022/06/04 00:25:29;;;;;;;4.43;2.17;;;;;;;16.00;53.23;101716.03;5020873;28;20034;-81
2022/06/04 00:28:00;;;;;;;5.80;1.98;;;;;;;16.00;53.25;101724.06;5015751;28;20052;-80
2022/06/04 00:30:26;;;;;;;6.22;2.42;;;;;;;15.95;53.46;101728.97;5022516;28;20053;-81
2022/06/04 00:32:52;;;;;;;3.58;2.10;;;;;;;15.95;53.52;101732.47;5020336;28;20046;-80
2022/06/04 00:35:18;;;;;;;3.28;1.85;;;;;;;15.91;53.28;101736.41;5025475;28;20080;-81
2022/06/04 00:37:43;;;;;;;3.20;1.92;;;;;;;15.87;53.29;101735.84;5016426;28;20030;-80
2022/06/04 00:40:14;;;;;;;7.70;2.10;;;;;;;15.85;53.98;101736.94;5020004;28;20049;-81
2022/06/04 00:42:39;;;;;;;2.17;1.95;;;;;;;15.83;52.99;101733.53;5016452;28;20057;-81
2022/06/04 00:45:20;;;;;;;2.90;1.92;;;;;;;15.85;52.67;101726.22;5012299;28;20052;-81
2022/06/04 00:47:45;;;;;;;3.70;2.13;;;;;;;15.80;52.98;101717.72;5017283;28;20029;-80
2022/06/04 00:50:14;;;;;;;2.33;2.10;;;;;;;15.79;53.11;101724.91;5008652;28;20159;-81
2022/06/04 00:52:41;;;;;;;2.63;2.30;;;;;;;15.75;53.16;101736.81;5017645;28;20060;-81
2022/06/04 00:55:08;;;;;;;3.13;1.80;;;;;;;15.71;53.14;101741.59;5014974;28;20036;-81
2022/06/04 00:57:39;;;;;;;2.92;2.20;;;;;;;15.70;53.11;101752.44;5007857;28;20026;-81
2022/06/04 01:00:18;;;;;;;5.70;2.08;;;;;;;15.68;52.44;101751.72;5013532;28;20026;-81
2022/06/04 01:03:22;;;;;;;4.63;2.22;;;;;;;15.67;52.80;101763.41;5009763;28;20038;-81
2022/06/04 01:06:09;;;;;;;2.53;2.13;;;;;;;15.64;52.57;101759.16;5023563;28;20042;-80
2022/06/04 01:08:43;;;;;;;3.13;1.90;;;;;;;15.60;52.57;101779.13;5019723;28;20030;-80
2022/06/04 01:12:11;;;;;;;3.55;2.00;;;;;;;15.59;52.45;101780.13;5018926;28;20034;-81
2022/06/04 01:15:06;;;;;;;2.90;2.17;;;;;;;15.53;52.74;101777.94;5013814;28;20038;-80
2022/06/04 01:17:43;;;;;;;2.20;2.03;;;;;;;15.44;52.77;101770.69;5016419;28;20082;-81
2022/06/04 01:20:27;;;;;;;3.15;2.10;;;;;;;15.45;53.05;101769.69;5027288;28;20059;-80
2022/06/04 01:23:10;;;;;;;5.32;2.10;;;;;;;15.44;52.71;101768.00;5003560;28;20399;-81
2022/06/04 01:25:59;;;;;;;5.00;2.38;;;;;;;15.37;53.44;101775.69;5011084;28;20037;-80
2022/06/04 01:28:27;;;;;;;5.90;2.00;;;;;;;15.36;52.99;101777.50;5015131;28;20034;-81
2022/06/04 01:31:00;;;;;;;3.17;2.17;;;;;;;15.33;53.39;101782.28;5015353;28;20061;-81
2022/06/04 01:33:42;;;;;;;3.75;2.20;;;;;;;15.32;53.10;101786.78;5014943;28;20847;-81
2022/06/04 01:36:17;;;;;;;3.03;2.30;;;;;;;15.27;53.04;101780.97;5017193;28;20037;-81
2022/06/04 01:39:15;;;;;;;4.40;2.20;;;;;;;15.28;52.71;101788.00;5005289;28;20038;-81
2022/06/04 01:41:45;;;;;;;3.45;2.40;;;;;;;15.20;53.51;101779.72;5010491;28;20046;-80
2022/06/04 01:44:35;;;;;;;6.10;2.35;;;;;;;15.23;53.40;101784.00;5024269;28;20029;-81
2022/06/04 01:47:06;;;;;;;6.68;2.58;;;;;;;15.15;53.45;101800.66;4998694;28;20125;-80
2022/06/04 01:49:41;;;;;;;4.22;2.15;;;;;;;15.12;53.57;101808.94;5001623;28;20072;-81
2022/06/04 01:52:16;;;;;;;3.42;2.00;;;;;;;15.13;53.56;101814.16;5005280;28;20030;-81
2022/06/04 01:54:48;;;;;;;5.05;2.38;;;;;;;15.08;53.97;101815.53;5015537;28;20021;-81
2022/06/04 01:57:26;;;;;;;3.25;2.45;;;;;;;15.12;53.58;101819.63;5004522;28;20025;-80
2022/06/04 01:59:57;;;;;;;4.22;2.20;;;;;;;15.07;53.86;101813.81;5018564;28;20030;-80
2022/06/04 02:02:33;;;;;;;3.10;2.05;;;;;;;15.01;54.10;101815.16;5021947;28;20075;-81
2022/06/04 02:05:02;;;;;;;2.97;2.40;;;;;;;14.98;54.14;101813.56;5033205;28;20032;-81
2022/06/04 02:07:35;;;;;;;3.80;2.38;;;;;;;14.97;54.28;101808.34;5022830;28;20029;-78
2022/06/04 02:10:00;;;;;;;5.43;2.13;;;;;;;14.95;54.39;101805.81;5007785;28;20023;-78
2022/06/04 02:12:26;;;;;;;3.97;2.33;;;;;;;14.93;54.32;101809.56;5022018;28;20036;-79
2022/06/04 02:14:51;;;;;;;3.03;2.42;;;;;;;14.93;53.95;101807.75;5023599;28;20299;-79
2022/06/04 02:17:21;;;;;;;4.72;2.45;;;;;;;14.93;54.39;101812.25;5020983;28;20546;-80
2022/06/04 02:19:47;;;;;;;4.38;2.53;;;;;;;14.91;54.32;101815.03;5021199;28;20064;-79
2022/06/04 02:22:13;;;;;;;3.83;2.50;;;;;;;14.91;54.16;101823.06;5016839;28;20018;-79
2022/06/04 02:24:40;;;;;;;5.60;2.40;;;;;;;14.88;54.55;101820.63;5017356;28;20034;-80
2022/06/04 02:27:06;;;;;;;3.13;2.47;;;;;;;14.86;54.80;101811.03;5014262;28;20454;-80
2022/06/04 02:29:33;;;;;;;3.17;2.35;;;;;;;14.85;54.34;101810.19;5004025;28;20022;-79
2022/06/04 02:32:17;;;;;;;6.38;2.70;;;;;;;14.85;54.26;101807.50;5005430;28;20026;-80
2022/06/04 02:35:03;;;;;;;3.95;2.30;;;;;;;14.80;54.33;101805.22;5007039;28;20041;-80
2022/06/04 02:37:40;;;;;;;3.75;2.42;;;;;;;14.72;54.74;101796.94;5022016;28;20087;-80
2022/06/04 02:40:12;;;;;;;6.88;2.85;;;;;;;14.68;55.38;101794.63;5010588;28;20057;-81
2022/06/04 02:42:45;;;;;;;3.38;2.45;;;;;;;14.61;55.38;101795.09;5004617;28;20055;-80
2022/06/04 02:45:26;;;;;;;4.53;2.72;;;;;;;14.60;55.55;101788.06;5011808;28;20042;-80
2022/06/04 02:48:09;;;;;;;5.47;2.42;;;;;;;14.54;55.49;101775.16;5020904;28;20026;-80
2022/06/04 02:50:42;;;;;;;5.05;2.63;;;;;;;14.50;55.95;101764.81;5022679;28;20022;-80
2022/06/04 02:53:09;;;;;;;6.78;2.60;;;;;;;14.45;56.38;101759.81;5024089;28;20034;-80
2022/06/04 02:55:50;;;;;;;4.50;2.80;;;;;;;14.42;55.82;101746.69;5022360;28;20041;-80
2022/06/04 02:58:19;;;;;;;5.68;2.90;;;;;;;14.37;56.15;101755.09;5018337;28;20426;-79
2022/06/04 03:00:48;;;;;;;4.32;3.00;;;;;;;14.33;56.17;101747.44;5020873;28;20060;-80
2022/06/04 03:03:13;;;;;;;6.20;3.10;;;;;;;14.32;56.35;101738.56;5016695;28;20034;-80
2022/06/04 03:05:57;;;;;;;3.50;2.70;;;;;;;14.30;56.22;101737.81;5017403;28;20026;-80
2022/06/04 03:08:23;;;;;;;5.35;3.00;;;;;;;14.31;56.43;101744.88;5017512;28;20042;-80
2022/06/04 03:10:49;;;;;;;2.55;2.22;;;;;;;14.31;56.77;101739.53;5017475;28;20470;-80
2022/06/04 03:13:14;;;;;;;5.30;2.70;;;;;;;14.27;57.30;101742.56;5019507;28;20041;-80
2022/06/04 03:15:40;;;;;;;5.55;2.55;;;;;;;14.26;57.22;101744.38;5013130;28;20125;-79
2022/06/04 03:18:06;;;;;;;3.75;2.88;;;;;;;14.21;57.47;101750.06;5009767;28;20474;-79
2022/06/04 03:20:34;;;;;;;5.47;3.08;;;;;;;14.18;57.73;101752.97;5026069;28;20085;-79
2022/06/04 03:22:59;;;;;;;7.25;3.40;;;;;;;14.12;58.01;101761.50;5022431;28;20124;-80
2022/06/04 03:25:24;;;;;;;5.72;3.10;;;;;;;14.05;57.97;101746.88;5023763;28;20030;-80
2022/06/04 03:27:50;;;;;;;5.30;2.87;;;;;;;14.04;58.08;101740.69;5014269;28;20039;-80
2022/06/04 03:30:16;;;;;;;5.85;3.25;;;;;;;14.02;58.49;101741.78;5014311;28;20299;-80
2022/06/04 03:32:42;;;;;;;5.18;3.13;;;;;;;14.01;58.53;101742.75;5019466;28;20058;-79
2022/06/04 03:35:09;;;;;;;4.50;3.25;;;;;;;13.99;58.93;101744.69;5021390;28;20049;-79
2022/06/04 03:37:35;;;;;;;6.03;3.50;;;;;;;13.98;59.06;101743.84;5026913;28;20030;-79
2022/06/04 03:40:01;;;;;;;4.90;3.40;;;;;;;13.95;59.40;101743.22;5033064;28;20110;-79
2022/06/04 03:42:26;;;;;;;7.47;3.40;;;;;;;13.91;59.41;101749.78;5026209;28;20451;-80
2022/06/04 03:44:51;;;;;;;10.05;3.58;;;;;;;13.90;59.26;101753.41;5022826;28;20032;-79
2022/06/04 03:47:17;;;;;;;6.78;3.50;;;;;;;13.85;59.79;101759.94;5024514;28;20025;-79
2022/06/04 03:49:43;;;;;;;4.90;3.90;;;;;;;13.83;60.14;101758.38;5023872;28;20030;-80
2022/06/04 03:52:11;;;;;;;6.97;4.13;;;;;;;13.83;59.76;101755.69;5022214;28;20063;-79
2022/06/04 03:54:52;;;;;;;4.20;3.78;;;;;;;13.83;60.07;101764.56;5023171;28;20490;-80
2022/06/04 04:00:03;;;;;;;10.73;4.50;;;;;;;13.81;60.43;101771.00;5023662;28;20052;-80
2022/06/04 04:02:29;;;;;;;5.03;3.63;;;;;;;13.78;60.69;101773.88;5022460;28;20030;-81
2022/06/04 04:04:54;;;;;;;8.43;4.22;;;;;;;13.73;60.73;101766.22;5026478;28;20458;-80
2022/06/04 04:07:19;;;;;;;8.38;3.90;;;;;;;13.75;61.11;101768.78;5011557;28;20026;-80
2022/06/04 04:09:45;;;;;;;6.60;4.10;;;;;;;13.71;60.93;101767.31;5026233;28;20093;-79
2022/06/04 04:12:10;;;;;;;4.90;3.70;;;;;;;13.71;61.36;101778.84;5025185;28;20026;-80
2022/06/04 04:14:35;;;;;;;6.75;4.18;;;;;;;13.70;61.39;101782.47;5022168;28;20369;-80
2022/06/04 04:17:01;;;;;;;8.18;4.53;;;;;;;13.69;61.72;101778.94;5026145;28;20037;-80
2022/06/04 04:19:29;;;;;;;6.28;4.30;;;;;;;13.67;61.79;101783.56;5025199;28;20026;-80
2022/06/04 04:21:55;;;;;;;6.22;4.65;;;;;;;13.69;61.59;101786.13;5026826;28;20030;-81
2022/06/04 04:24:20;;;;;;;5.15;4.05;;;;;;;13.66;62.01;101784.50;5025488;28;20037;-81
2022/06/04 04:26:46;;;;;;;5.80;4.20;;;;;;;13.65;61.87;101789.97;5011873;28;20038;-81
2022/06/04 04:29:11;;;;;;;8.93;4.20;;;;;;;13.64;62.37;101788.28;5007622;28;20052;-82
2022/06/04 04:31:37;;;;;;;9.55;4.88;;;;;;;13.67;62.29;101798.69;5023116;28;20049;-82
2022/06/04 04:34:03;;;;;;;8.23;4.35;;;;;;;13.69;62.20;101796.78;5021353;28;20014;-81
2022/06/04 04:36:30;;;;;;;8.25;4.55;;;;;;;13.71;62.18;101797.53;5022807;28;20021;-81
2022/06/04 04:38:56;;;;;;;5.90;4.20;;;;;;;13.73;62.09;101800.94;5020951;28;20030;-81
2022/06/04 04:41:21;;;;;;;12.63;4.63;;;;;;;13.75;62.61;101795.47;5023615;28;20071;-80
2022/06/04 04:43:49;;;;;;;8.23;4.72;;;;;;;13.74;62.91;101815.13;5024966;28;20042;-81
2022/06/04 04:46:15;;;;;;;7.95;4.30;;;;;;;13.76;62.58;101818.53;5024013;28;20029;-81
2022/06/04 04:48:42;;;;;;;9.93;4.97;;;;;;;13.74;63.03;101810.66;5023808;28;20086;-82
2022/06/04 04:51:19;;;;;;;9.38;4.70;;;;;;;13.74;62.50;101821.31;5024240;28;20453;-81
2022/06/04 04:53:45;;;;;;;9.70;5.22;;;;;;;13.74;62.71;101824.00;5015342;28;20034;-80
2022/06/04 04:56:13;;;;;;;6.78;4.70;;;;;;;13.73;62.65;101816.94;5029572;28;20026;-80
2022/06/04 04:58:38;;;;;;;7.70;4.90;;;;;;;13.71;63.52;101818.03;5012801;28;20117;-82
2022/06/04 05:01:04;;;;;;;8.02;4.68;;;;;;;13.71;63.38;101824.22;5023381;28;20037;-81
2022/06/04 05:03:32;;;;;;;9.40;4.28;;;;;;;13.73;63.23;101824.94;5027141;28;20030;-81
2022/06/04 05:06:03;;;;;;;7.78;4.75;;;;;;;13.68;63.46;101827.97;5040065;28;20108;-81
2022/06/04 05:08:29;;;;;;;7.57;4.88;;;;;;;13.71;63.64;101824.22;5035327;28;20517;-82
2022/06/04 05:10:54;;;;;;;9.38;4.65;;;;;;;13.73;63.55;101832.13;5035493;28;20022;-81
2022/06/04 05:13:20;;;;;;;8.63;4.90;;;;;;;13.72;63.90;101820.56;5020127;28;20093;-81
2022/06/04 05:15:46;;;;;;;8.13;5.00;;;;;;;13.76;63.77;101821.22;5023880;28;20057;-80
2022/06/04 05:18:11;;;;;;;10.02;5.15;;;;;;;13.79;63.72;101824.50;5022923;28;20033;-82
2022/06/04 05:20:37;;;;;;;7.43;4.95;;;;;;;13.83;63.94;101833.13;5022247;28;20474;-82
2022/06/04 05:23:03;;;;;;;9.23;5.47;;;;;;;13.84;64.32;101829.50;5032105;28;20034;-80
2022/06/04 05:25:28;;;;;;;11.13;6.07;;;;;;;13.86;64.20;101828.41;5020652;28;20030;-81
2022/06/04 05:27:53;;;;;;;7.28;5.30;;;;;;;13.94;63.48;101835.00;5018602;28;20030;-81
2022/06/04 05:30:18;;;;;;;9.82;5.25;;;;;;;13.91;64.12;101835.25;5027862;28;20059;-81
2022/06/04 05:32:44;;;;;;;8.93;5.50;;;;;;;13.90;63.82;101837.03;5021087;28;20037;-81
2022/06/04 05:35:09;;;;;;;8.38;5.50;;;;;;;13.92;64.27;101837.78;5019223;28;20029;-81
2022/06/04 05:37:35;;;;;;;7.50;5.35;;;;;;;13.95;64.07;101839.38;5021608;28;20025;-80
2022/06/04 05:40:00;;;;;;;10.27;5.65;;;;;;;13.97;64.34;101840.09;5025720;28;20125;-81
2022/06/04 05:42:25;;;;;;;9.52;5.53;;;;;;;14.02;64.43;101843.28;5025708;28;20026;-81
2022/06/04 05:44:57;;;;;;;9.82;5.20;;;;;;;14.05;63.76;101848.38;5022564;28;20049;-82
2022/06/04 05:47:22;;;;;;;10.45;5.95;;;;;;;14.07;64.25;101855.34;5024687;28;20048;-81
2022/06/04 05:49:47;;;;;;;10.52;5.53;;;;;;;14.11;63.99;101865.78;5023972;28;20037;-81
2022/06/04 05:52:13;;;;;;;9.48;5.95;;;;;;;14.11;64.42;101861.28;5019661;28;20065;-80
2022/06/04 05:54:38;;;;;;;7.78;5.25;;;;;;;14.13;63.79;101863.84;5020588;28;20025;-80
2022/06/04 05:57:04;;;;;;;10.15;5.70;;;;;;;14.14;63.84;101858.41;5028797;28;20094;-80
2022/06/04 05:59:30;;;;;;;9.88;6.47;;;;;;;14.17;64.25;101850.16;5032784;28;20033;-81
2022/06/04 06:01:55;;;;;;;10.05;5.50;;;;;;;14.23;63.89;101855.00;5031175;28;20037;-80
2022/06/04 06:04:25;;;;;;;6.80;5.30;;;;;;;14.25;64.33;101855.78;5032843;28;20022;-81
2022/06/04 06:06:52;;;;;;;13.93;6.03;;;;;;;14.28;64.16;101860.00;5035060;28;20055;-79
2022/06/04 06:09:20;;;;;;;7.75;5.78;;;;;;;14.27;63.88;101860.97;5035609;28;20042;-81
2022/06/04 06:11:46;;;;;;;8.85;5.40;;;;;;;14.29;63.86;101861.72;5017886;28;20052;-82
2022/06/04 06:14:12;;;;;;;9.02;5.43;;;;;;;14.32;64.21;101863.28;5031087;28;20085;-82
2022/06/04 06:16:41;;;;;;;8.80;5.97;;;;;;;14.38;64.31;101854.81;5028344;28;20057;-81
2022/06/04 06:19:07;;;;;;;9.77;5.55;;;;;;;14.40;63.57;101853.72;5034185;28;20022;-80
2022/06/04 06:21:34;;;;;;;11.65;6.00;;;;;;;14.48;63.93;101858.47;5038075;28;20030;-82
2022/06/04 06:24:00;;;;;;;6.93;5.40;;;;;;;14.54;63.69;101863.38;5034688;28;20065;-82
2022/06/04 06:26:30;;;;;;;7.57;5.25;;;;;;;14.61;63.47;101861.94;5034587;28;20015;-81
2022/06/04 06:28:57;;;;;;;9.77;5.88;;;;;;;14.66;63.34;101855.41;5019169;28;20065;-81
2022/06/04 06:31:26;;;;;;;11.10;6.20;;;;;;;14.69;63.28;101866.72;5027253;28;20025;-80
2022/06/04 06:33:53;;;;;;;10.60;5.80;;;;;;;14.75;63.18;101868.03;5032087;28;20034;-79
2022/06/04 06:36:20;;;;;;;9.38;6.25;;;;;;;14.86;63.66;101873.41;5034776;28;20010;-79
2022/06/04 06:38:46;;;;;;;11.65;6.10;;;;;;;14.96;63.59;101879.72;5038548;27;20303;-81
2022/06/04 06:41:14;;;;;;;11.13;6.18;;;;;;;15.05;62.38;101878.16;5028315;28;20130;-79
2022/06/04 06:43:50;;;;;;;11.10;6.75;;;;;;;15.06;61.81;101874.50;5023136;28;20049;-80
2022/06/04 06:46:23;;;;;;;9.35;6.30;;;;;;;15.08;61.68;101885.09;5036945;28;20010;-80
2022/06/04 06:48:53;;;;;;;12.30;6.55;;;;;;;15.17;62.55;101879.00;5036846;28;20042;-79
2022/06/04 06:51:26;;;;;;;8.52;6.15;;;;;;;15.19;62.18;101882.41;5027366;28;20089;-79
2022/06/04 06:53:54;;;;;;;7.25;5.93;;;;;;;15.22;61.87;101883.97;5043413;27;20050;-79
2022/06/04 06:56:23;;;;;;;13.77;6.93;;;;;;;15.22;61.65;101884.84;5028670;28;20018;-77
2022/06/04 06:58:50;;;;;;;12.15;6.65;;;;;;;15.22;62.14;101879.50;5022374;28;20033;-76
2022/06/04 07:01:15;;;;;;;13.45;7.15;;;;;;;15.22;61.48;101886.66;5021608;28;20474;-77
2022/06/04 07:03:43;;;;;;;12.07;7.15;;;;;;;15.23;61.65;101883.03;5016368;28;20048;-77
2022/06/04 07:06:11;;;;;;;10.30;6.38;;;;;;;15.24;61.86;101880.22;5011820;28;20463;-78
2022/06/04 07:08:38;;;;;;;9.18;6.32;;;;;;;15.24;61.17;101872.19;5017168;28;20034;-78
2022/06/04 07:11:05;;;;;;;8.88;6.97;;;;;;;15.27;61.29;101880.00;5016348;28;20038;-80
2022/06/04 07:13:30;;;;;;;11.52;7.30;;;;;;;15.26;61.57;101880.94;5019842;28;20030;-79
2022/06/04 07:15:56;;;;;;;10.88;7.38;;;;;;;15.32;61.43;101879.59;5015165;28;20094;-79
2022/06/04 07:18:23;;;;;;;12.50;7.05;;;;;;;15.38;61.59;101878.25;5003357;28;20091;-79
2022/06/04 07:20:48;;;;;;;10.90;7.15;;;;;;;15.40;61.20;101884.34;5014543;28;20045;-79
2022/06/04 07:23:16;;;;;;;11.63;7.38;;;;;;;15.38;61.11;101880.94;5014463;28;20459;-79
2022/06/04 07:25:44;;;;;;;9.93;7.03;;;;;;;15.34;60.79;101883.03;5009135;28;20030;-78
2022/06/04 07:28:12;;;;;;;14.32;7.93;;;;;;;15.32;61.26;101880.47;5008891;28;20046;-79
2022/06/04 07:30:38;;;;;;;10.63;7.28;;;;;;;15.38;61.52;101891.66;4996393;28;20026;-79
2022/06/04 07:33:04;;;;;;;9.93;7.28;;;;;;;15.43;62.26;101894.81;4997283;28;20031;-78
2022/06/04 07:35:29;;;;;;;15.80;8.23;;;;;;;15.47;60.81;101894.44;5002674;28;20026;-79
2022/06/04 07:37:54;;;;;;;9.98;6.97;;;;;;;15.46;60.86;101898.09;5011094;28;20116;-80
2022/06/04 07:40:21;;;;;;;8.10;7.15;;;;;;;15.46;60.66;101907.94;5013413;28;20046;-79
2022/06/04 07:42:47;;;;;;;10.70;7.13;;;;;;;15.46;61.34;101913.31;5008738;28;20039;-79
2022/06/04 07:45:13;;;;;;;8.20;7.13;;;;;;;15.48;61.04;101909.50;5007043;28;20113;-79
2022/06/04 07:47:40;;;;;;;11.32;7.55;;;;;;;15.46;60.45;101908.78;5018376;28;20113;-79
2022/06/04 07:50:07;;;;;;;10.20;7.43;;;;;;;15.45;61.05;101906.25;5017838;28;20086;-79
2022/06/04 07:52:34;;;;;;;10.15;7.63;;;;;;;15.51;61.36;101905.75;5014155;28;20026;-79
2022/06/04 07:54:59;;;;;;;10.05;7.70;;;;;;;15.51;61.32;101908.44;5013821;28;20018;-79
2022/06/04 07:57:25;;;;;;;10.00;8.27;;;;;;;15.49;61.06;101897.84;5013314;28;20090;-79
2022/06/04 07:59:50;;;;;;;13.00;7.57;;;;;;;15.53;60.52;101904.63;5001151;28;20034;-80
2022/06/04 08:02:15;;;;;;;11.80;7.25;;;;;;;15.53;60.43;101901.13;5007656;28;20034;-79
2022/06/04 08:04:42;;;;;;;9.43;7.65;;;;;;;15.52;60.81;101902.94;5007998;28;20101;-81
2022/06/04 08:07:07;;;;;;;11.18;7.85;;;;;;;15.51;60.58;101901.25;5013333;28;20038;-79
2022/06/04 08:09:33;;;;;;;10.32;7.82;;;;;;;15.51;60.91;101906.59;4996722;28;20053;-80
2022/06/04 08:11:58;;;;;;;12.80;7.65;;;;;;;15.48;61.19;101906.84;4995946;28;20066;-80
2022/06/04 08:14:25;;;;;;;11.35;7.95;;;;;;;15.56;61.43;101905.38;4998105;28;20041;-80
2022/06/04 08:16:57;;;;;;;12.98;7.72;;;;;;;15.61;60.90;101898.66;5023362;28;20379;-80
2022/06/04 08:19:25;;;;;;;12.02;8.18;;;;;;;15.61;61.08;101896.00;5015834;28;20034;-80
2022/06/04 08:21:52;;;;;;;10.50;8.20;;;;;;;15.59;61.17;101900.63;5031741;28;20079;-80
2022/06/04 08:24:20;;;;;;;11.10;8.70;;;;;;;15.60;61.16;101898.78;5016593;28;20033;-80
2022/06/04 08:26:47;;;;;;;14.63;7.75;;;;;;;15.59;61.00;101889.03;5018708;28;20052;-79
2022/06/04 08:29:14;;;;;;;11.38;8.10;;;;;;;15.63;61.25;101883.31;5003075;28;20163;-80
2022/06/04 08:31:40;;;;;;;9.43;8.05;;;;;;;15.69;61.29;101874.78;5004354;28;20494;-81
2022/06/04 08:34:06;;;;;;;11.93;8.43;;;;;;;15.75;61.10;101876.09;5008738;28;20044;-80
2022/06/04 08:36:32;;;;;;;12.32;7.70;;;;;;;15.77;60.82;101878.69;5004635;28;20054;-80
2022/06/04 08:38:58;;;;;;;12.32;8.30;;;;;;;15.77;61.04;101889.41;5011224;28;20045;-81
2022/06/04 08:41:42;;;;;;;14.43;8.18;;;;;;;15.82;60.72;101890.75;5016009;28;20218;-81
2022/06/04 08:44:15;;;;;;;9.23;7.82;;;;;;;15.84;60.85;101886.09;5014586;28;20121;-81
2022/06/04 08:47:10;;;;;;;11.27;8.48;;;;;;;15.95;60.27;101893.25;5016217;28;20425;-81
2022/06/04 08:49:52;;;;;;;11.13;8.30;;;;;;;16.09;60.05;101892.13;5015323;28;20030;-80
2022/06/04 08:52:21;;;;;;;8.90;7.57;;;;;;;16.44;59.20;101890.97;5013847;28;20033;-80
2022/06/04 08:57:43;;;;;;;12.02;8.20;;;;;;;17.20;57.96;101904.13;5010819;28;20037;-80
2022/06/04 09:00:30;;;;;;;11.88;8.32;;;;;;;17.32;57.08;101900.38;5014529;28;20049;-80
2022/06/04 09:03:07;;;;;;;13.48;7.60;;;;;;;17.53;56.89;101912.88;5017275;28;20014;-81
2022/06/04 09:05:45;;;;;;;8.73;7.78;;;;;;;17.69;56.09;101902.44;5023055;28;20030;-80
2022/06/04 09:08:20;;;;;;;10.60;7.68;;;;;;;17.91;55.36;101903.22;5017391;28;20470;-79
2022/06/04 09:10:58;;;;;;;12.32;7.63;;;;;;;18.02;55.31;101897.72;5010935;28;20032;-81
2022/06/04 09:13:47;;;;;;;10.73;7.23;;;;;;;18.28;55.22;101897.97;5013943;28;20057;-80
2022/06/04 09:16:36;;;;;;;;;;;;;;;18.47;54.33;101896.28;5029231;28;20030;-80
2022/06/04 09:19:09;;;;;;;9.45;7.82;;;;;;;18.55;53.47;101893.72;5011449;28;19897;-80
2022/06/04 09:21:37;;;;;;;10.73;7.70;;;;;;;18.62;53.59;101896.69;5018099;28;20050;-80
2022/06/04 09:24:04;;;;;;;12.63;7.88;;;;;;;18.65;53.03;101891.00;5016878;28;20042;-80
2022/06/04 09:26:40;;;;;;;9.35;7.38;;;;;;;18.75;53.03;101894.53;5019871;28;20022;-81
2022/06/04 09:29:23;;;;;;;10.13;7.53;;;;;;;18.83;53.48;101899.19;5020832;28;20022;-81
2022/06/04 09:32:09;;;;;;;10.40;7.88;;;;;;;18.82;52.96;101901.03;5022413;28;20034;-79
2022/06/04 09:34:47;;;;;;;12.27;7.40;;;;;;;19.01;53.55;101896.59;5019227;28;20044;-80
2022/06/04 09:37:12;;;;;;;10.43;7.50;;;;;;;19.27;52.83;101896.78;5020408;28;20097;-81
2022/06/04 09:39:41;;;;;;;9.98;7.75;;;;;;;19.58;52.64;101899.16;5022605;28;20014;-82
2022/06/04 09:42:19;;;;;;;11.20;7.80;;;;;;;19.88;50.47;101895.28;5021391;28;20031;-79
2022/06/04 09:44:57;;;;;;;11.32;7.82;;;;;;;20.00;50.00;101898.63;5008662;28;20038;-80
2022/06/04 09:47:43;;;;;;;;;;;;;;;20.22;50.65;101901.88;5003169;28;20037;-78
2022/06/04 09:50:37;;;;;;;9.65;7.35;;;;;;;20.24;49.87;101906.09;5016285;28;20540;-79
2022/06/04 09:53:18;;;;;;;10.40;8.20;;;;;;;20.37;49.20;101908.41;5006535;28;20029;-80
2022/06/04 09:55:57;;;;;;;8.25;7.25;;;;;;;20.41;48.40;101909.75;5008692;28;20063;-81
2022/06/04 09:58:32;;;;;;;9.55;7.72;;;;;;;20.39;48.68;101903.69;5005064;28;20022;-79
2022/06/04 10:01:04;;;;;;;9.48;7.72;;;;;;;20.32;48.58;101906.16;5012986;28;20025;-81
2022/06/04 10:03:33;;;;;;;13.98;8.45;;;;;;;20.38;48.76;101904.66;5009158;28;20022;-80
2022/06/04 10:06:13;;;;;;;10.87;7.93;;;;;;;20.60;50.02;101913.28;5020322;28;20030;-80
2022/06/04 10:12:20;;;;;;;9.55;7.80;;;;;;;21.13;48.48;101920.38;5000205;28;20041;-80
2022/06/04 10:14:57;;;;;;;10.32;8.05;;;;;;;21.13;47.62;101917.69;5002623;28;20034;-79
2022/06/04 10:17:34;;;;;;;14.18;8.27;;;;;;;21.11;47.00;101927.81;5015093;28;20026;-79
2022/06/04 10:19:59;;;;;;;13.75;8.30;;;;;;;21.07;46.54;101910.25;5006570;28;20030;-80
2022/06/04 10:22:25;;;;;;;10.63;8.00;;;;;;;21.11;47.45;101913.47;5003422;28;20031;-80
2022/06/04 10:24:56;;;;;;;10.52;8.10;;;;;;;21.23;47.10;101914.88;5012496;28;20033;-81
2022/06/04 10:27:45;;;;;;;12.30;8.95;;;;;;;21.29;47.09;101911.53;5004388;28;20026;-80
2022/06/04 10:30:24;;;;;;;13.73;8.50;;;;;;;21.38;47.01;101913.25;5017164;28;20041;-82
2022/06/04 10:33:24;;;;;;;8.10;7.10;;;;;;;21.48;46.94;101912.31;5013784;28;20083;-80
2022/06/04 10:36:27;;;;;;;14.25;8.27;;;;;;;21.58;46.57;101918.41;5018180;28;20038;-82
2022/06/04 10:39:28;;;;;;;10.98;8.38;;;;;;;21.64;45.82;101909.66;5076991;28;20048;-81
2022/06/04 10:42:07;;;;;;;11.32;8.30;;;;;;;21.74;46.23;101915.75;5056181;28;20157;-82
2022/06/04 10:44:51;;;;;;;;;;;;;;;22.03;46.44;101916.31;5026019;28;20046;-80
2022/06/04 10:47:26;;;;;;;11.27;8.48;;;;;;;22.39;45.76;101916.06;5013555;28;19921;-80
2022/06/04 10:49:51;;;;;;;10.35;8.40;;;;;;;22.73;45.03;101923.94;5019816;28;20030;-80
2022/06/04 10:53:04;;;;;;;10.93;8.00;;;;;;;23.04;45.17;101921.34;5023661;28;20102;-80
2022/06/04 10:55:35;;;;;;;10.90;7.80;;;;;;;23.54;43.30;101911.19;5021401;28;20345;-80
2022/06/04 10:58:06;;;;;;;11.40;8.13;;;;;;;23.85;41.96;101912.22;4999849;28;21114;-81
2022/06/04 11:00:44;;;;;;;11.60;8.50;;;;;;;23.97;41.48;101905.38;5008111;28;20041;-80
2022/06/04 11:03:17;;;;;;;11.27;8.02;;;;;;;24.00;41.29;101914.00;5018812;28;20034;-81
2022/06/04 11:05:47;;;;;;;9.77;7.80;;;;;;;24.07;41.04;101908.69;5008644;28;20034;-82
2022/06/04 11:08:18;;;;;;;11.57;7.53;;;;;;;24.30;41.81;101922.25;5007335;28;20042;-82
2022/06/04 11:10:50;;;;;;;10.05;7.05;;;;;;;24.34;41.86;101909.97;5029758;28;20033;-83
2022/06/04 11:13:44;;;;;;;10.48;7.70;;;;;;;24.45;41.67;101918.72;5040270;28;20102;-81
2022/06/04 11:16:22;;;;;;;12.70;8.02;;;;;;;24.46;40.86;101925.84;5023261;28;20081;-81
2022/06/04 11:18:56;;;;;;;12.32;8.35;;;;;;;24.15;40.11;101919.47;5026182;28;20049;-82
2022/06/04 11:21:57;;;;;;;9.05;8.15;;;;;;;24.35;40.97;101919.84;5019989;28;20047;-81
2022/06/04 11:24:33;;;;;;;10.52;8.15;;;;;;;24.47;40.64;101917.53;5006625;28;20054;-82
2022/06/04 11:27:19;;;;;;;12.15;8.20;;;;;;;24.56;40.30;101916.47;5026983;28;20033;-81
2022/06/04 11:29:50;;;;;;;11.90;8.10;;;;;;;24.49;40.20;101915.47;5027207;28;20112;-82
2022/06/04 11:32:21;;;;;;;17.05;7.63;;;;;;;24.45;39.79;101907.84;5024975;28;20034;-83
2022/06/04 11:34:55;;;;;;;9.02;7.55;;;;;;;24.54;41.15;101912.19;5018826;28;20046;-82
2022/06/04 11:37:30;;;;;;;11.80;7.93;;;;;;;24.47;40.31;101908.53;5022574;28;20010;-82
2022/06/04 11:40:05;;;;;;;12.38;8.20;;;;;;;24.47;40.15;101908.53;5015674;28;20053;-82
2022/06/04 11:42:57;;;;;;;13.35;8.18;;;;;;;24.56;40.37;101900.16;5015702;28;20026;-81
2022/06/04 11:45:44;;;;;;;12.75;8.00;;;;;;;24.61;40.00;101899.59;5023371;28;20031;-79
2022/06/04 11:48:28;;;;;;;11.50;8.07;;;;;;;24.77;40.80;101895.03;5026777;28;20108;-80
2022/06/04 11:51:32;;;;;;;12.10;8.57;;;;;;;25.01;40.44;101891.19;5011714;28;20109;-81
2022/06/04 11:54:15;;;;;;;9.10;7.50;;;;;;;25.11;38.88;101892.59;5009876;28;20022;-82
2022/06/04 11:56:59;;;;;;;12.52;7.85;;;;;;;25.12;38.76;101885.28;5024900;28;20022;-82